This demonstration page uses our WeatherBlox Daily Observations layout. Learn more.

36.17497, -115.13722

Hourly Observations for June 26, 2015

Temp ( °F °C ) Dew Point ( °F °C ) Humidity (%) Winds ( mph kmh ) Pressure ( in mb ) Visibility ( mi km ) Precip ( " mm )
12:53 am 00:53 Clear 97 36.1 27 -2.8 8 8 NW 16 26 29.8 1009 10 16.0934 0 0
1:53 am 01:53 Clear 96 35.6 25 -3.9 8 8 NW 14 22 29.8 1009 10 16.0934 0 0
2:53 am 02:53 Clear 96 35.6 26 -3.3 8 8 NW 12 19 29.81 1009 10 16.0934 0 0
3:53 am 03:53 Clear 95 35 27 -2.8 9 9 NNW 10 17 29.82 1010 10 16.0934 0 0
4:53 am 04:53 Clear 91 32.8 28 -2.2 10 10 WNW 6 9 29.84 1011 10 16.0934 0 0
5:53 am 05:53 Sunny 92 33.3 26 -3.3 9 9 W 6 9 29.85 1011 10 16.0934 0 0
6:53 am 06:53 Sunny 90 32.2 30 -1.1 12 12 SSW 3 6 29.87 1012 10 16.0934 0 0
7:53 am 07:53 Sunny 94 34.4 33 0.6 12 12 NE 3 6 29.89 1012 10 16.0934 0 0
8:53 am 08:53 Sunny 96 35.6 35 1.7 12 12 ESE 3 6 29.9 1013 10 16.0934 0 0
9:53 am 09:53 Sunny 99 37.2 34 1.1 10 10 Calm 29.88 1012 10 16.0934 0 0
10:53 am 10:53 Sunny 103 39.4 33 0.6 9 9 Calm 29.88 1012 10 16.0934 0 0
11:53 am 11:53 Sunny 104 40 31 -0.6 8 8 SSE 7 11 29.87 1011 10 16.0934 0 0
12:53 pm 12:53 Sunny 107 41.7 31 -0.6 7 7 SE 8 13 29.86 1011 10 16.0934 0 0
1:53 pm 13:53 Sunny 107 41.7 30 -1.1 7 7 VRB 3 6 29.83 1010 10 16.0934 0 0
2:53 pm 14:53 Sunny 109 42.8 31 -0.6 7 7 Calm 29.81 1010 10 16.0934 0 0
3:53 pm 15:53 Sunny 109 42.8 32 0 7 7 S 5 7 29.79 1009 10 16.0934 0 0
4:53 pm 16:53 Sunny 110 43.3 32 0 7 7 SW 9 15 29.77 1008 10 16.0934 0 0
5:53 pm 17:53 Sunny 109 42.8 31 -0.6 7 7 VRB 7 11 29.75 1007 10 16.0934 0 0
6:53 pm 18:53 Sunny 107 41.7 31 -0.6 7 7 W 12 19 29.75 1007 10 16.0934 0 0
7:53 pm 19:53 Sunny 105 40.6 31 -0.6 7 7 W 14 22 29.76 1008 10 16.0934 0 0
8:53 pm 20:53 Clear 102 38.9 31 -0.6 8 8 undefined N/A 29.78 1008 10 16.0934 0 0
9:53 pm 21:53 Clear 102 38.9 31 -0.6 8 8 NNW 14 22 29.79 1009 10 16.0934 0 0
10:53 pm 22:53 Clear 99 37.2 31 -0.6 9 9 WNW 15 24 29.8 1009 10 16.0934 0 0
11:53 pm 23:53 Clear 99 37.2 31 -0.6 9 9 NW 15 24 29.8 1009 10 16.0934 0 0

Powered by AerisWeather